createdAt,value
2018-02-22T00:00:55.955Z,-0.66
2018-02-22T00:01:55.940Z,-0.62
2018-02-22T00:02:55.888Z,-0.66
2018-02-22T00:03:55.897Z,-0.56
2018-02-22T00:04:55.826Z,-0.62
2018-02-22T00:05:55.792Z,-0.58
2018-02-22T00:06:55.762Z,-0.69
2018-02-22T00:07:55.723Z,-0.59
2018-02-22T00:08:55.697Z,-0.59
2018-02-22T00:09:55.693Z,-0.58
2018-02-22T00:10:55.634Z,-0.59
2018-02-22T00:11:55.594Z,-0.59
2018-02-22T00:12:55.598Z,-0.67
2018-02-22T00:13:55.530Z,-0.66
2018-02-22T00:14:55.547Z,-0.74
2018-02-22T00:15:55.531Z,-0.73
2018-02-22T00:16:55.429Z,-0.62
2018-02-22T00:17:55.399Z,-0.69
2018-02-22T00:18:55.366Z,-0.67
2018-02-22T00:19:55.332Z,-0.73
2018-02-22T00:20:55.299Z,-0.72
2018-02-22T00:21:55.292Z,-0.67
2018-02-22T00:22:55.302Z,-0.70
2018-02-22T00:23:55.200Z,-0.69
2018-02-22T00:24:55.171Z,-0.73
2018-02-22T00:25:55.136Z,-0.70
2018-02-22T00:26:55.140Z,-0.70
2018-02-22T00:27:55.078Z,-0.73
2018-02-22T00:28:55.039Z,-0.74
2018-02-22T00:29:55.010Z,-0.70
2018-02-22T00:30:54.974Z,-0.70
2018-02-22T00:31:54.967Z,-0.76
2018-02-22T00:32:54.954Z,-0.79
2018-02-22T00:33:54.874Z,-0.79
2018-02-22T00:34:54.843Z,-0.80
2018-02-22T00:35:55.567Z,-0.80
2018-02-22T00:36:54.776Z,-0.80
2018-02-22T00:37:54.753Z,-0.84
2018-02-22T00:38:54.745Z,-0.91
2018-02-22T00:39:54.681Z,-0.93
2018-02-22T00:40:54.654Z,-0.95
2018-02-22T00:41:54.620Z,-0.96
2018-02-22T00:42:54.579Z,-1.01
2018-02-22T00:43:54.587Z,-0.98
2018-02-22T00:44:54.517Z,-1.06
2018-02-22T00:45:54.483Z,-0.99
2018-02-22T00:46:54.448Z,-1.07
2018-02-22T00:47:54.424Z,-1.09
2018-02-22T00:48:54.398Z,-1.11
2018-02-22T00:49:54.405Z,-1.16
2018-02-22T00:50:54.316Z,-1.06
2018-02-22T00:51:54.313Z,-1.13
2018-02-22T00:52:54.253Z,-1.10
2018-02-22T00:53:54.220Z,-1.17
2018-02-22T00:54:54.189Z,-1.09
2018-02-22T00:55:54.154Z,-1.17
2018-02-22T00:56:54.151Z,-1.14
2018-02-22T00:57:54.104Z,-1.14
2018-02-22T00:58:54.056Z,-1.17
2018-02-22T00:59:54.022Z,-1.22
2018-02-22T01:00:53.990Z,-1.17
2018-02-22T01:01:53.982Z,-1.16
2018-02-22T01:02:53.923Z,-1.21
2018-02-22T01:03:53.891Z,-1.13
2018-02-22T01:04:53.856Z,-1.19
2018-02-22T01:05:53.846Z,-1.19
2018-02-22T01:06:53.819Z,-1.17
2018-02-22T01:07:53.759Z,-1.10
2018-02-22T01:08:53.734Z,-1.32
2018-02-22T01:09:53.703Z,-1.14
2018-02-22T01:10:53.665Z,-1.14
2018-02-22T01:11:53.657Z,-1.24
2018-02-22T01:12:54.529Z,-1.19
2018-02-22T01:13:53.601Z,-1.24
2018-02-22T01:14:53.533Z,-1.31
2018-02-22T01:15:53.504Z,-1.32
2018-02-22T01:16:53.506Z,-1.31
2018-02-22T01:17:53.430Z,-1.42
2018-02-22T01:18:53.414Z,-1.40
2018-02-22T01:19:53.366Z,-1.50
2018-02-22T01:20:53.334Z,-1.42
2018-02-22T01:21:53.340Z,-1.46
2018-02-22T01:22:53.285Z,-1.50
2018-02-22T01:23:53.234Z,-1.45
2018-02-22T01:24:53.204Z,-1.46
2018-02-22T01:25:53.164Z,-1.50
2018-02-22T01:26:53.167Z,-1.45
2018-02-22T01:27:53.101Z,-1.53
2018-02-22T01:28:53.073Z,-1.45
2018-02-22T01:29:53.039Z,-1.52
2018-02-22T01:30:52.999Z,-1.58
2018-02-22T01:31:52.999Z,-1.50
2018-02-22T01:32:52.930Z,-1.50
2018-02-22T01:33:52.915Z,-1.46
2018-02-22T01:34:52.868Z,-1.49
2018-02-22T01:35:52.836Z,-1.46
2018-02-22T01:36:52.834Z,-1.49
2018-02-22T01:37:52.774Z,-1.49
2018-02-22T01:38:52.737Z,-1.48
2018-02-22T01:39:52.747Z,-1.49
2018-02-22T01:40:52.669Z,-1.45
2018-02-22T01:41:52.665Z,-1.40
2018-02-22T01:42:52.622Z,-1.31
2018-02-22T01:43:52.572Z,-1.30
2018-02-22T01:44:52.538Z,-1.28
2018-02-22T01:45:52.514Z,-1.19
2018-02-22T01:46:52.509Z,-1.14
2018-02-22T01:47:52.438Z,-1.16
2018-02-22T01:48:52.410Z,-1.19
2018-02-22T01:49:52.376Z,-1.09
2018-02-22T01:50:52.345Z,-1.16
2018-02-22T01:51:52.330Z,-1.10
2018-02-22T01:52:52.274Z,-1.06
2018-02-22T01:53:52.245Z,-0.99
2018-02-22T01:54:52.208Z,-0.98
2018-02-22T01:55:52.213Z,-0.91
2018-02-22T01:56:52.147Z,-0.87
2018-02-22T01:57:52.130Z,-0.84
2018-02-22T01:58:52.080Z,-0.87
2018-02-22T01:59:52.048Z,-0.80
2018-02-22T02:00:52.044Z,-0.79
2018-02-22T02:01:52.021Z,-0.76
2018-02-22T02:02:51.949Z,-0.72
2018-02-22T02:03:51.952Z,-0.76
2018-02-22T02:04:51.892Z,-0.73
2018-02-22T02:05:51.851Z,-0.73
2018-02-22T02:06:51.832Z,-0.62
2018-02-22T02:07:51.847Z,-0.67
2018-02-22T02:08:51.753Z,-0.49
2018-02-22T02:09:51.722Z,-0.61
2018-02-22T02:10:51.715Z,-0.58
2018-02-22T02:11:51.657Z,-0.45
2018-02-22T02:12:51.628Z,-0.43
2018-02-22T02:13:51.590Z,-0.43
2018-02-22T02:14:51.626Z,-0.51
2018-02-22T02:15:51.553Z,-0.45
2018-02-22T02:16:51.493Z,-0.37
2018-02-22T02:17:51.461Z,-0.37
2018-02-22T02:18:51.428Z,-0.40
2018-02-22T02:19:51.405Z,-0.25
2018-02-22T02:20:51.388Z,-0.27
2018-02-22T02:21:51.331Z,-0.25
2018-02-22T02:22:51.314Z,-0.30
2018-02-22T02:23:51.269Z,-0.38
2018-02-22T02:24:51.235Z,-0.22
2018-02-22T02:25:51.231Z,-0.22
2018-02-22T02:26:51.169Z,-0.22
2018-02-22T02:27:51.144Z,-0.22
2018-02-22T02:28:51.110Z,-0.28
2018-02-22T02:29:51.080Z,-0.28
2018-02-22T02:30:51.072Z,-0.31
2018-02-22T02:31:51.010Z,-0.19
2018-02-22T02:32:50.983Z,-0.31
2018-02-22T02:33:50.956Z,-0.23
2018-02-22T02:34:50.914Z,-0.27
2018-02-22T02:35:50.912Z,-0.20
2018-02-22T02:36:50.849Z,-0.22
2018-02-22T02:37:50.824Z,-0.22
2018-02-22T02:38:50.788Z,-0.28
2018-02-22T02:39:50.751Z,-0.16
2018-02-22T02:40:50.746Z,-0.27
2018-02-22T02:41:50.691Z,-0.28
2018-02-22T02:42:50.651Z,-0.20
2018-02-22T02:43:50.624Z,-0.33
2018-02-22T02:44:50.597Z,-0.27
2018-02-22T02:45:50.592Z,-0.28
2018-02-22T02:46:51.132Z,-0.30
2018-02-22T02:47:50.502Z,-0.27
2018-02-22T02:48:50.459Z,-0.18
2018-02-22T02:49:50.428Z,-0.23
2018-02-22T02:50:50.432Z,-0.25
2018-02-22T02:51:50.373Z,-0.19
2018-02-22T02:52:50.333Z,-0.16
2018-02-22T02:53:50.308Z,-0.19
2018-02-22T02:54:50.271Z,-0.19
2018-02-22T02:55:50.243Z,-0.22
2018-02-22T02:56:50.304Z,-0.20
2018-02-22T02:57:50.178Z,-0.15
2018-02-22T02:58:50.149Z,-0.16
2018-02-22T02:59:50.115Z,-0.12
2018-02-22T03:00:50.084Z,-0.20
2018-02-22T03:01:50.046Z,-0.22
2018-02-22T03:02:50.041Z,-0.16
2018-02-22T03:03:49.983Z,-0.10
2018-02-22T03:04:49.948Z,-0.12
2018-02-22T03:05:49.922Z,-0.12
2018-02-22T03:06:49.886Z,-0.16
2018-02-22T03:07:49.905Z,-0.23
2018-02-22T03:08:49.819Z,-0.07
2018-02-22T03:09:49.798Z,-0.09
2018-02-22T03:10:49.755Z,-0.13
2018-02-22T03:11:49.738Z,-0.04
2018-02-22T03:12:49.696Z,-0.10
2018-02-22T03:13:49.709Z,-0.02
2018-02-22T03:14:49.629Z,-0.01
2018-02-22T03:15:49.625Z,-0.16
2018-02-22T03:16:49.564Z,-0.01
2018-02-22T03:17:49.537Z,-0.04
2018-02-22T03:18:49.502Z,0.01
2018-02-22T03:19:49.524Z,-0.04
2018-02-22T03:20:49.435Z,-0.13
2018-02-22T03:21:49.402Z,-0.07
2018-02-22T03:22:49.369Z,-0.07
2018-02-22T03:23:49.353Z,-0.18
2018-02-22T03:24:49.348Z,-0.12
2018-02-22T03:25:49.275Z,-0.12
2018-02-22T03:26:49.243Z,-0.22
2018-02-22T03:27:49.224Z,-0.18
2018-02-22T03:28:49.185Z,-0.20
2018-02-22T03:29:49.148Z,-0.23
2018-02-22T03:30:49.155Z,-0.33
2018-02-22T03:31:49.080Z,-0.40
2018-02-22T03:32:49.050Z,-0.27
2018-02-22T03:33:49.021Z,-0.38
2018-02-22T03:34:48.985Z,-0.36
2018-02-22T03:35:48.954Z,-0.37
2018-02-22T03:36:48.944Z,-0.38
2018-02-22T03:37:48.895Z,-0.49
2018-02-22T03:38:48.861Z,-0.48
2018-02-22T03:39:48.827Z,-0.41
2018-02-22T03:40:48.800Z,-0.58
2018-02-22T03:41:48.806Z,-0.67
2018-02-22T03:42:48.726Z,-0.56
2018-02-22T03:43:48.696Z,-0.64
2018-02-22T03:44:48.669Z,-0.66
2018-02-22T03:45:48.633Z,-0.56
2018-02-22T03:46:48.598Z,-0.61
2018-02-22T03:47:48.604Z,-0.67
2018-02-22T03:48:48.540Z,-0.76
2018-02-22T03:49:48.500Z,-0.73
2018-02-22T03:50:48.471Z,-0.82
2018-02-22T03:51:48.444Z,-0.82
2018-02-22T03:52:48.401Z,-0.84
2018-02-22T03:53:48.404Z,-0.92
2018-02-22T03:54:48.341Z,-0.98
2018-02-22T03:55:48.329Z,-1.09
2018-02-22T03:56:48.273Z,-1.06
2018-02-22T03:57:48.240Z,-1.09
2018-02-22T03:58:48.208Z,-1.11
2018-02-22T03:59:48.180Z,-1.21
2018-02-22T04:00:48.174Z,-1.14
2018-02-22T04:01:48.117Z,-1.11
2018-02-22T04:02:48.082Z,-1.16
2018-02-22T04:03:48.042Z,-1.11
2018-02-22T04:04:48.051Z,-1.11
2018-02-22T04:05:48.008Z,-1.24
2018-02-22T04:06:47.956Z,-1.21
2018-02-22T04:07:47.917Z,-1.31
2018-02-22T04:08:47.896Z,-1.27
2018-02-22T04:09:47.846Z,-1.35
2018-02-22T04:10:47.840Z,-1.37
2018-02-22T04:11:47.783Z,-1.35
2018-02-22T04:12:47.750Z,-1.28
2018-02-22T04:13:47.743Z,-1.32
2018-02-22T04:14:47.683Z,-1.35
2018-02-22T04:15:47.681Z,-1.28
2018-02-22T04:16:47.614Z,-1.28
2018-02-22T04:17:47.590Z,-1.28
2018-02-22T04:18:47.554Z,-1.32
2018-02-22T04:19:47.521Z,-1.24
2018-02-22T04:20:47.519Z,-1.31
2018-02-22T04:21:47.453Z,-1.21
2018-02-22T04:22:47.421Z,-1.21
2018-02-22T04:23:47.386Z,-1.34
2018-02-22T04:24:47.337Z,-1.27
2018-02-22T04:25:47.316Z,-1.30
2018-02-22T04:26:47.267Z,-1.31
2018-02-22T04:27:47.226Z,-1.32
2018-02-22T04:28:47.203Z,-1.31
2018-02-22T04:29:47.163Z,-1.31
2018-02-22T04:30:47.164Z,-1.37
2018-02-22T04:31:47.097Z,-1.32
2018-02-22T04:32:47.063Z,-1.40
2018-02-22T04:33:47.032Z,-1.35
2018-02-22T04:34:46.995Z,-1.35
2018-02-22T04:35:46.992Z,-1.40
2018-02-22T04:36:46.929Z,-1.42
2018-02-22T04:37:46.900Z,-1.40
2018-02-22T04:38:46.871Z,-1.49
2018-02-22T04:39:46.841Z,-1.53
2018-02-22T04:40:46.827Z,-1.42
2018-02-22T04:41:46.762Z,-1.49
2018-02-22T04:42:46.742Z,-1.52
2018-02-22T04:43:46.717Z,-1.60
2018-02-22T04:44:46.677Z,-1.60
2018-02-22T04:45:46.655Z,-1.58
2018-02-22T04:46:46.595Z,-1.66
2018-02-22T04:47:46.574Z,-1.64
2018-02-22T04:48:46.540Z,-1.73
2018-02-22T04:49:46.499Z,-1.68
2018-02-22T04:50:46.502Z,-1.74
2018-02-22T04:51:46.434Z,-1.73
2018-02-22T04:52:46.396Z,-1.78
2018-02-22T04:53:46.370Z,-1.81
2018-02-22T04:54:46.376Z,-1.78
2018-02-22T04:55:46.301Z,-1.86
2018-02-22T04:56:46.266Z,-1.79
2018-02-22T04:57:46.240Z,-1.78
2018-02-22T04:58:46.197Z,-1.79
2018-02-22T04:59:46.198Z,-1.78
2018-02-22T05:00:46.130Z,-1.76
2018-02-22T05:01:46.097Z,-1.86
2018-02-22T05:02:46.068Z,-1.82
2018-02-22T05:03:46.032Z,-1.88
2018-02-22T05:04:46.023Z,-1.89
2018-02-22T05:05:45.967Z,-1.85
2018-02-22T05:06:45.941Z,-1.86
2018-02-22T05:07:45.904Z,-1.85
2018-02-22T05:08:45.870Z,-1.81
2018-02-22T05:09:45.859Z,-1.84
2018-02-22T05:10:45.795Z,-1.91
2018-02-22T05:11:45.763Z,-1.86
2018-02-22T05:12:45.740Z,-1.94
2018-02-22T05:13:45.701Z,-1.89
2018-02-22T05:14:45.689Z,-1.96
2018-02-22T05:15:45.634Z,-1.91
2018-02-22T05:16:45.600Z,-1.92
2018-02-22T05:17:45.565Z,-1.94
2018-02-22T05:18:45.531Z,-1.99
2018-02-22T05:19:45.530Z,-1.92
2018-02-22T05:20:46.076Z,-1.97
2018-02-22T05:21:45.432Z,-2.02
2018-02-22T05:22:45.422Z,-1.99
2018-02-22T05:23:45.377Z,-1.85
2018-02-22T05:24:45.376Z,-2.02
2018-02-22T05:25:45.297Z,-2.02
2018-02-22T05:26:45.287Z,-2.05
2018-02-22T05:27:45.252Z,-2.10
2018-02-22T05:28:45.206Z,-2.06
2018-02-22T05:29:45.200Z,-2.14
2018-02-22T05:30:45.188Z,-2.10
2018-02-22T05:31:45.107Z,-2.18
2018-02-22T05:32:45.062Z,-2.10
2018-02-22T05:33:45.026Z,-2.09
2018-02-22T05:34:45.019Z,-2.21
2018-02-22T05:35:44.963Z,-2.28
2018-02-22T05:36:44.929Z,-2.23
2018-02-22T05:37:44.896Z,-2.28
2018-02-22T05:38:44.866Z,-2.28
2018-02-22T05:39:44.857Z,-2.30
2018-02-22T05:40:44.796Z,-2.34
2018-02-22T05:41:44.759Z,-2.27
2018-02-22T05:42:44.749Z,-2.25
2018-02-22T05:43:44.695Z,-2.25
2018-02-22T05:44:44.703Z,-2.28
2018-02-22T05:45:44.627Z,-2.28
2018-02-22T05:46:44.589Z,-2.24
2018-02-22T05:47:44.558Z,-2.20
2018-02-22T05:48:44.528Z,-2.25
2018-02-22T05:49:44.521Z,-2.23
2018-02-22T05:50:44.484Z,-2.28
2018-02-22T05:51:44.423Z,-2.21
2018-02-22T05:52:44.391Z,-2.36
2018-02-22T05:53:44.356Z,-2.27
2018-02-22T05:54:44.327Z,-2.30
2018-02-22T05:55:44.313Z,-2.27
2018-02-22T05:56:44.266Z,-2.28
2018-02-22T05:57:44.221Z,-2.28
2018-02-22T05:58:44.186Z,-2.39
2018-02-22T05:59:44.166Z,-2.34
2018-02-22T06:00:44.146Z,-2.28
2018-02-22T06:01:44.100Z,-2.27
2018-02-22T06:02:44.053Z,-2.30
2018-02-22T06:03:44.019Z,-2.36
2018-02-22T06:04:44.010Z,-2.44
2018-02-22T06:05:43.955Z,-2.54
2018-02-22T06:06:43.919Z,-2.44
2018-02-22T06:07:43.890Z,-2.50
2018-02-22T06:08:43.855Z,-2.50
2018-02-22T06:09:43.850Z,-2.55
2018-02-22T06:10:43.783Z,-2.55
2018-02-22T06:11:43.750Z,-2.58
2018-02-22T06:12:43.728Z,-2.53
2018-02-22T06:13:43.682Z,-2.60
2018-02-22T06:14:43.673Z,-2.50
2018-02-22T06:15:43.617Z,-2.62
2018-02-22T06:16:43.585Z,-2.53
2018-02-22T06:17:43.552Z,-2.55
2018-02-22T06:18:43.518Z,-2.54
2018-02-22T06:19:43.509Z,-2.55
2018-02-22T06:20:43.449Z,-2.60
2018-02-22T06:21:43.415Z,-2.54
2018-02-22T06:22:43.380Z,-2.67
2018-02-22T06:23:43.348Z,-2.55
2018-02-22T06:24:43.341Z,-2.55
2018-02-22T06:25:43.278Z,-2.57
2018-02-22T06:26:43.245Z,-2.61
2018-02-22T06:27:43.215Z,-2.58
2018-02-22T06:28:43.182Z,-2.55
2018-02-22T06:29:43.171Z,-2.53
2018-02-22T06:30:43.109Z,-2.54
2018-02-22T06:31:43.074Z,-2.55
2018-02-22T06:32:43.042Z,-2.55
2018-02-22T06:33:43.018Z,-2.57
2018-02-22T06:34:43.004Z,-2.54
2018-02-22T06:35:42.936Z,-2.53
2018-02-22T06:36:42.903Z,-2.54
2018-02-22T06:37:42.942Z,-2.58
2018-02-22T06:38:42.836Z,-2.57
2018-02-22T06:39:42.835Z,-2.50
2018-02-22T06:40:42.774Z,-2.53
2018-02-22T06:41:42.769Z,-2.54
2018-02-22T06:42:42.702Z,-2.47
2018-02-22T06:43:42.671Z,-2.42
2018-02-22T06:44:42.670Z,-2.42
2018-02-22T06:45:42.604Z,-2.39
2018-02-22T06:46:42.572Z,-2.44
2018-02-22T06:47:42.715Z,-2.37
2018-02-22T06:48:42.501Z,-2.40
2018-02-22T06:49:42.512Z,-2.44
2018-02-22T06:50:42.455Z,-2.37
2018-02-22T06:51:42.414Z,-2.34
2018-02-22T06:52:42.363Z,-2.40
2018-02-22T06:53:42.335Z,-2.43
2018-02-22T06:54:42.304Z,-2.40
2018-02-22T06:55:42.289Z,-2.30
2018-02-22T06:56:42.236Z,-2.25
2018-02-22T06:57:42.198Z,-2.25
2018-02-22T06:58:42.173Z,-2.27
2018-02-22T06:59:42.138Z,-2.21
2018-02-22T07:00:42.121Z,-2.24
2018-02-22T07:01:42.067Z,-2.34
2018-02-22T07:02:42.030Z,-2.32
2018-02-22T07:03:41.993Z,-2.30
2018-02-22T07:04:41.960Z,-2.20
2018-02-22T07:05:41.954Z,-2.25
2018-02-22T07:06:41.921Z,-2.20
2018-02-22T07:07:41.862Z,-2.14
2018-02-22T07:08:41.830Z,-2.12
2018-02-22T07:09:41.804Z,-2.09
2018-02-22T07:10:41.873Z,-2.15
2018-02-22T07:11:41.736Z,-2.18
2018-02-22T07:12:41.698Z,-2.10
2018-02-22T07:13:41.664Z,-2.12
2018-02-22T07:14:41.629Z,-2.03
2018-02-22T07:15:41.618Z,-1.96
2018-02-22T07:16:41.563Z,-2.00
2018-02-22T07:17:41.530Z,-2.00
2018-02-22T07:18:41.570Z,-1.94
2018-02-22T07:19:41.459Z,-1.89
2018-02-22T07:20:41.461Z,-1.97
2018-02-22T07:21:41.398Z,-1.85
2018-02-22T07:22:41.357Z,-1.81
2018-02-22T07:23:41.330Z,-1.86
2018-02-22T07:24:41.306Z,-1.82
2018-02-22T07:25:41.294Z,-1.76
2018-02-22T07:26:41.229Z,-1.76
2018-02-22T07:27:41.225Z,-1.76
2018-02-22T07:28:41.163Z,-1.78
2018-02-22T07:29:41.158Z,-1.56
2018-02-22T07:30:41.112Z,-1.66
2018-02-22T07:31:41.062Z,-1.58
2018-02-22T07:32:41.055Z,-1.52
2018-02-22T07:33:40.994Z,-1.43
2018-02-22T07:34:44.235Z,-1.32
2018-02-22T07:35:41.682Z,-1.35
2018-02-22T07:36:40.919Z,-1.35
2018-02-22T07:37:40.865Z,-1.17
2018-02-22T07:38:40.835Z,-1.16
2018-02-22T07:39:40.829Z,-1.13
2018-02-22T07:40:40.769Z,-0.98
2018-02-22T07:41:40.740Z,-0.87
2018-02-22T07:42:40.696Z,-0.72
2018-02-22T07:43:40.667Z,-0.69
2018-02-22T07:44:40.668Z,-0.61
2018-02-22T07:45:40.604Z,-0.62
2018-02-22T07:46:40.568Z,-0.46
2018-02-22T07:47:40.541Z,-0.38
2018-02-22T07:48:40.536Z,-0.37
2018-02-22T07:49:40.470Z,-0.37
2018-02-22T07:50:40.471Z,-0.22
2018-02-22T07:51:40.412Z,-0.20
2018-02-22T07:52:40.378Z,-0.12
2018-02-22T07:53:40.375Z,-0.12
2018-02-22T07:54:40.368Z,0.05
2018-02-22T07:55:40.297Z,0.08
2018-02-22T07:56:40.259Z,0.08
2018-02-22T07:57:40.215Z,0.23
2018-02-22T07:58:40.224Z,0.24
2018-02-22T07:59:40.153Z,0.39
2018-02-22T08:00:40.151Z,0.35
2018-02-22T08:01:40.093Z,0.52
2018-02-22T08:02:40.169Z,0.57
2018-02-22T08:03:40.020Z,0.58
2018-02-22T08:04:40.151Z,0.74
2018-02-22T08:05:39.996Z,0.89
2018-02-22T08:06:39.934Z,1.02
2018-02-22T08:07:39.903Z,0.99
2018-02-22T08:08:39.866Z,1.08
2018-02-22T08:09:39.870Z,1.20
2018-02-22T08:10:39.807Z,1.32
2018-02-22T08:11:39.787Z,1.48
2018-02-22T08:12:39.746Z,1.66
2018-02-22T08:13:39.740Z,1.71
2018-02-22T08:14:39.681Z,1.71
2018-02-22T08:15:40.630Z,1.86
2018-02-22T08:16:39.621Z,1.92
2018-02-22T08:17:39.599Z,1.87
2018-02-22T08:18:39.583Z,2.02
2018-02-22T08:19:39.531Z,2.09
2018-02-22T08:20:39.501Z,2.27
2018-02-22T08:21:39.478Z,2.42
2018-02-22T08:22:39.449Z,2.66
2018-02-22T08:23:39.454Z,2.67
2018-02-22T08:24:39.390Z,2.87
2018-02-22T08:25:39.357Z,2.88
2018-02-22T08:26:39.334Z,2.93
2018-02-22T08:27:39.323Z,2.96
2018-02-22T08:28:39.336Z,3.05
2018-02-22T08:29:39.252Z,3.16
2018-02-22T08:30:39.254Z,3.14
2018-02-22T08:31:39.205Z,3.37
2018-02-22T08:32:39.176Z,3.45
2018-02-22T08:33:39.150Z,3.56
2018-02-22T08:34:39.124Z,3.64
2018-02-22T08:35:39.136Z,3.79
2018-02-22T08:36:39.084Z,4.03
2018-02-22T08:37:39.049Z,4.32
2018-02-22T08:38:39.027Z,4.47
2018-02-22T08:39:39.003Z,4.79
2018-02-22T08:40:39.008Z,5.03
2018-02-22T08:41:38.963Z,5.10
2018-02-22T08:42:38.934Z,5.12
2018-02-22T08:43:38.917Z,5.26
2018-02-22T08:44:38.898Z,5.44
2018-02-22T08:45:38.894Z,5.62
2018-02-22T08:46:38.851Z,5.60
2018-02-22T08:47:38.828Z,5.60
2018-02-22T08:48:38.811Z,5.54
2018-02-22T08:49:38.794Z,5.69
2018-02-22T08:50:38.793Z,5.75
2018-02-22T08:51:38.748Z,5.57
2018-02-22T08:52:38.735Z,5.63
2018-02-22T08:53:39.154Z,5.89
2018-02-22T08:54:38.689Z,6.13
2018-02-22T08:55:38.670Z,6.37
2018-02-22T08:56:38.651Z,6.51
2018-02-22T08:57:38.630Z,6.68
2018-02-22T08:58:38.640Z,6.90
2018-02-22T08:59:38.599Z,6.98
2018-02-22T09:00:38.581Z,7.11
2018-02-22T09:01:38.570Z,7.21
2018-02-22T09:02:38.547Z,7.31
2018-02-22T09:03:38.559Z,7.52
2018-02-22T09:04:38.514Z,7.47
2018-02-22T09:05:38.508Z,7.47
2018-02-22T09:06:38.478Z,7.68
2018-02-22T09:07:38.460Z,7.73
2018-02-22T09:08:38.473Z,7.99
2018-02-22T09:09:38.437Z,8.07
2018-02-22T09:10:38.417Z,8.39
2018-02-22T09:11:38.393Z,8.58
2018-02-22T09:12:38.381Z,8.86
2018-02-22T09:13:38.396Z,8.90
2018-02-22T09:14:38.373Z,8.92
2018-02-22T09:15:38.385Z,9.05
2018-02-22T09:16:38.317Z,9.21
2018-02-22T09:17:38.319Z,9.38
2018-02-22T09:18:38.314Z,9.56
2018-02-22T09:19:38.272Z,9.66
2018-02-22T09:20:38.319Z,9.71
2018-02-22T09:21:38.251Z,9.85
2018-02-22T09:22:38.230Z,9.84
2018-02-22T09:23:38.224Z,9.81
2018-02-22T09:24:38.203Z,9.93
2018-02-22T09:25:38.235Z,9.95
2018-02-22T09:26:38.178Z,10.17
2018-02-22T09:27:38.156Z,10.13
2018-02-22T09:28:38.153Z,10.13
2018-02-22T09:29:38.169Z,10.18
2018-02-22T09:30:38.161Z,10.17
2018-02-22T09:31:38.110Z,10.08
2018-02-22T09:32:38.095Z,9.89
2018-02-22T09:33:38.084Z,9.82
2018-02-22T09:34:38.069Z,9.90
2018-02-22T09:35:38.082Z,10.00
2018-02-22T09:36:38.040Z,10.08
2018-02-22T09:37:38.034Z,10.20
2018-02-22T09:38:38.041Z,10.10
2018-02-22T09:39:38.024Z,10.17
2018-02-22T09:40:37.989Z,10.23
2018-02-22T09:41:37.971Z,10.35
2018-02-22T09:42:37.956Z,10.31
2018-02-22T09:43:37.971Z,10.58
2018-02-22T09:44:37.933Z,10.55
2018-02-22T09:45:37.922Z,10.80
2018-02-22T09:46:37.916Z,10.92
2018-02-22T09:47:37.894Z,11.16
2018-02-22T09:48:37.910Z,11.48
2018-02-22T09:49:37.887Z,11.61
2018-02-22T09:50:37.860Z,11.64
2018-02-22T09:51:37.845Z,11.66
2018-02-22T09:52:37.833Z,11.56
2018-02-22T09:53:37.846Z,11.81
2018-02-22T09:54:37.805Z,12.01
2018-02-22T09:55:37.818Z,12.08
2018-02-22T09:56:37.777Z,12.11
2018-02-22T09:57:37.803Z,12.40
2018-02-22T09:58:37.798Z,12.38
2018-02-22T09:59:37.745Z,12.15
2018-02-22T10:00:37.759Z,12.16
2018-02-22T10:01:37.814Z,12.26
2018-02-22T10:02:37.705Z,12.51
2018-02-22T10:03:37.703Z,12.53
2018-02-22T10:04:37.682Z,12.48
2018-02-22T10:05:37.699Z,12.63
2018-02-22T10:06:37.665Z,12.83
2018-02-22T10:07:37.649Z,12.73
2018-02-22T10:08:37.643Z,12.81
2018-02-22T10:09:37.637Z,12.61
2018-02-22T10:10:37.639Z,12.47
2018-02-22T10:11:37.605Z,11.76
2018-02-22T10:12:37.588Z,11.09
2018-02-22T10:13:37.577Z,10.72
2018-02-22T10:14:37.563Z,10.77
2018-02-22T10:15:37.579Z,11.00
2018-02-22T10:16:37.537Z,11.31
2018-02-22T10:17:37.524Z,11.67
2018-02-22T10:18:37.534Z,12.00
2018-02-22T10:19:37.494Z,12.05
2018-02-22T10:20:37.480Z,11.67
2018-02-22T10:21:37.470Z,11.48
2018-02-22T10:22:37.451Z,11.24
2018-02-22T10:23:37.462Z,10.92
2018-02-22T10:24:37.426Z,10.63
2018-02-22T10:25:37.421Z,11.12
2018-02-22T10:26:37.401Z,11.12
2018-02-22T10:27:37.379Z,11.33
2018-02-22T10:28:37.391Z,11.61
2018-02-22T10:29:37.351Z,11.52
2018-02-22T10:30:37.347Z,11.21
2018-02-22T10:31:37.325Z,10.92
2018-02-22T10:32:37.304Z,11.03
2018-02-22T10:33:37.321Z,10.72
2018-02-22T10:34:37.272Z,10.42
2018-02-22T10:35:37.260Z,9.99
2018-02-22T10:36:37.242Z,9.67
2018-02-22T10:37:37.228Z,9.41
2018-02-22T10:38:37.237Z,9.04
2018-02-22T10:39:37.197Z,8.76
2018-02-22T10:40:37.210Z,8.61
2018-02-22T10:41:37.163Z,8.58
2018-02-22T10:42:37.138Z,8.92
2018-02-22T10:43:37.128Z,9.05
2018-02-22T10:44:37.106Z,8.74
2018-02-22T10:45:37.116Z,8.49
2018-02-22T10:46:37.090Z,8.24
2018-02-22T10:47:37.049Z,8.03
2018-02-22T10:48:37.032Z,8.50
2018-02-22T10:49:37.014Z,8.76
2018-02-22T10:50:37.025Z,9.05
2018-02-22T10:51:37.076Z,9.57
2018-02-22T10:52:36.958Z,9.88
2018-02-22T10:53:36.967Z,9.77
2018-02-22T10:54:36.921Z,10.25
2018-02-22T10:55:36.899Z,10.65
2018-02-22T10:56:36.893Z,11.13
2018-02-22T10:57:36.863Z,11.66
2018-02-22T10:58:36.872Z,11.95
2018-02-22T10:59:36.835Z,12.16
2018-02-22T11:00:36.804Z,12.51
2018-02-22T11:01:36.786Z,12.69
2018-02-22T11:02:36.778Z,12.94
2018-02-22T11:03:36.786Z,13.13
2018-02-22T11:04:36.741Z,13.47
2018-02-22T11:05:36.731Z,13.65
2018-02-22T11:06:36.712Z,13.65
2018-02-22T11:07:36.695Z,13.83
2018-02-22T11:08:36.706Z,14.13
2018-02-22T11:09:36.667Z,14.46
2018-02-22T11:10:36.658Z,14.75
2018-02-22T11:11:36.645Z,14.95
2018-02-22T11:12:36.633Z,15.18
2018-02-22T11:13:36.648Z,15.47
2018-02-22T11:14:36.695Z,15.68
2018-02-22T11:15:36.625Z,15.95
2018-02-22T11:16:36.580Z,16.04
2018-02-22T11:17:36.571Z,15.96
2018-02-22T11:18:36.564Z,15.99
2018-02-22T11:19:36.561Z,16.16
2018-02-22T11:20:36.579Z,16.36
2018-02-22T11:21:36.536Z,16.67
2018-02-22T11:22:36.549Z,16.76
2018-02-22T11:23:36.526Z,16.91
2018-02-22T11:24:36.507Z,17.07
2018-02-22T11:25:36.493Z,16.72
2018-02-22T11:26:36.480Z,16.67
2018-02-22T11:27:36.513Z,16.65
2018-02-22T11:28:36.462Z,16.94
2018-02-22T11:29:36.458Z,16.63
2018-02-22T11:30:36.445Z,16.17
2018-02-22T11:31:36.435Z,15.81
2018-02-22T11:32:36.449Z,15.15
2018-02-22T11:33:36.415Z,14.67
2018-02-22T11:34:36.408Z,14.20
2018-02-22T11:35:36.411Z,13.86
2018-02-22T11:36:36.400Z,13.55
2018-02-22T11:37:36.409Z,12.88
2018-02-22T11:38:36.371Z,12.44
2018-02-22T11:39:36.350Z,11.94
2018-02-22T11:40:36.340Z,11.81
2018-02-22T11:41:36.336Z,11.56
2018-02-22T11:42:36.343Z,11.18
2018-02-22T11:43:36.308Z,11.00
2018-02-22T11:44:36.290Z,10.76
2018-02-22T11:45:36.270Z,10.54
2018-02-22T11:46:36.265Z,10.44
2018-02-22T11:47:36.269Z,10.05
2018-02-22T11:48:36.235Z,9.90
2018-02-22T11:49:36.218Z,9.71
2018-02-22T11:50:36.197Z,9.72
2018-02-22T11:51:36.180Z,9.85
2018-02-22T11:52:36.197Z,9.96
2018-02-22T11:53:36.148Z,9.92
2018-02-22T11:54:36.130Z,10.00
2018-02-22T11:55:36.138Z,10.49
2018-02-22T11:56:36.103Z,10.63
2018-02-22T11:57:36.074Z,10.88
2018-02-22T11:58:36.062Z,10.69
2018-02-22T11:59:36.049Z,10.70
2018-02-22T12:00:36.066Z,10.52
2018-02-22T12:01:36.020Z,9.99
2018-02-22T12:02:35.991Z,9.88
2018-02-22T12:03:35.977Z,9.72
2018-02-22T12:04:35.957Z,9.71
2018-02-22T12:05:36.021Z,9.74
2018-02-22T12:06:35.926Z,9.50
2018-02-22T12:07:35.903Z,9.35
2018-02-22T12:08:35.884Z,9.29
2018-02-22T12:09:35.875Z,9.12
2018-02-22T12:10:35.877Z,8.87
2018-02-22T12:11:35.832Z,8.65
2018-02-22T12:12:35.807Z,8.42
2018-02-22T12:13:35.796Z,8.01
2018-02-22T12:14:35.772Z,8.01
2018-02-22T12:15:35.784Z,7.83
2018-02-22T12:16:35.731Z,7.74
2018-02-22T12:17:35.743Z,7.59
2018-02-22T12:18:35.690Z,7.33
2018-02-22T12:19:35.671Z,7.29
2018-02-22T12:20:35.682Z,7.21
2018-02-22T12:21:35.629Z,7.23
2018-02-22T12:22:35.628Z,7.16
2018-02-22T12:23:35.590Z,7.12
2018-02-22T12:24:35.563Z,7.00
2018-02-22T12:25:35.542Z,7.03
2018-02-22T12:26:35.518Z,6.98
2018-02-22T12:27:35.522Z,6.78
2018-02-22T12:28:35.468Z,6.75
2018-02-22T12:29:35.450Z,6.52
2018-02-22T12:30:35.421Z,6.47
2018-02-22T12:31:35.410Z,6.52
2018-02-22T12:32:35.411Z,6.52
2018-02-22T12:33:35.361Z,6.62
2018-02-22T12:34:35.332Z,6.57
2018-02-22T12:35:35.303Z,6.65
2018-02-22T12:36:35.280Z,6.60
2018-02-22T12:37:35.289Z,6.64
2018-02-22T12:38:35.249Z,6.72
2018-02-22T12:39:35.214Z,6.67
2018-02-22T12:40:35.216Z,6.72
2018-02-22T12:41:35.163Z,6.57
2018-02-22T12:42:35.131Z,6.46
2018-02-22T12:43:35.114Z,6.36
2018-02-22T12:44:35.093Z,6.28
2018-02-22T12:45:35.088Z,6.34
2018-02-22T12:46:35.042Z,6.34
2018-02-22T12:47:35.017Z,6.47
2018-02-22T12:48:34.987Z,6.52
2018-02-22T12:49:34.967Z,6.64
2018-02-22T12:50:34.997Z,6.72
2018-02-22T12:51:34.914Z,6.97
2018-02-22T12:52:34.917Z,7.12
2018-02-22T12:53:34.867Z,7.58
2018-02-22T12:54:34.845Z,7.64
2018-02-22T12:55:34.833Z,7.75
2018-02-22T12:56:34.791Z,7.68
2018-02-22T12:57:55.801Z,7.61
2018-02-22T12:58:55.744Z,7.51